createdAt,value
2023-03-13T00:02:14.429Z,98677.16
2023-03-13T00:04:41.318Z,98672.00
2023-03-13T00:07:08.184Z,98674.87
2023-03-13T00:09:35.025Z,98675.34
2023-03-13T00:12:01.800Z,98676.16
2023-03-13T00:14:28.600Z,98673.09
2023-03-13T00:16:55.554Z,98680.97
2023-03-13T00:19:22.425Z,98675.78
2023-03-13T00:21:49.452Z,98673.09
2023-03-13T00:24:16.731Z,98667.94
2023-03-13T00:26:43.603Z,98664.63
2023-03-13T00:29:10.493Z,98661.13
2023-03-13T00:31:37.435Z,98655.94
2023-03-13T00:34:04.762Z,98655.12
2023-03-13T00:36:33.859Z,98652.44
2023-03-13T00:39:01.176Z,98648.91
2023-03-13T00:41:30.585Z,98642.09
2023-03-13T00:43:58.076Z,98634.47
2023-03-13T00:46:28.238Z,98627.41
2023-03-13T00:48:55.881Z,98630.94
2023-03-13T00:51:26.726Z,98628.00
2023-03-13T00:53:53.851Z,98625.53
2023-03-13T00:56:21.861Z,98619.56
2023-03-13T00:58:50.034Z,98614.59
2023-03-13T01:01:25.611Z,98608.59
2023-03-13T01:03:55.176Z,98606.72
2023-03-13T01:06:24.243Z,98599.47
2023-03-13T01:08:51.559Z,98605.91
2023-03-13T01:11:25.138Z,98602.38
2023-03-13T01:13:56.364Z,98602.16
2023-03-13T01:16:23.830Z,98598.41
2023-03-13T01:18:53.391Z,98596.34
2023-03-13T01:21:22.031Z,98595.50
2023-03-13T01:23:50.590Z,98588.25
2023-03-13T01:26:18.058Z,98582.63
2023-03-13T01:28:45.677Z,98584.50
2023-03-13T01:31:13.798Z,98576.41
2023-03-13T01:33:40.988Z,98570.19
2023-03-13T01:36:09.321Z,98564.78
2023-03-13T01:38:37.174Z,98570.19
2023-03-13T01:41:04.358Z,98571.25
2023-03-13T01:43:33.867Z,98567.50
2023-03-13T01:46:17.806Z,98560.47
2023-03-13T01:48:47.860Z,98565.63
2023-03-13T01:51:30.848Z,98567.50
2023-03-13T01:54:07.084Z,98559.63
2023-03-13T01:56:58.826Z,98564.41
2023-03-13T01:59:32.468Z,98563.00
2023-03-13T02:02:02.834Z,98555.50
2023-03-13T02:04:35.111Z,98558.19
2023-03-13T02:07:07.341Z,98556.53
2023-03-13T02:09:35.476Z,98556.53
2023-03-13T02:12:35.761Z,98560.28
2023-03-13T02:15:15.839Z,98555.94
2023-03-13T02:17:44.569Z,98545.41
2023-03-13T02:20:12.955Z,98548.31
2023-03-13T02:22:50.227Z,98546.44
2023-03-13T02:25:34.295Z,98542.09
2023-03-13T02:28:05.136Z,98535.88
2023-03-13T02:30:33.158Z,98531.78
2023-03-13T02:33:01.479Z,98539.03
2023-03-13T02:35:30.022Z,98544.44
2023-03-13T02:38:01.545Z,98543.63
2023-03-13T02:40:31.707Z,98539.28
2023-03-13T02:43:03.026Z,98534.94
2023-03-13T02:45:29.859Z,98535.97
2023-03-13T02:47:56.719Z,98534.56
2023-03-13T02:50:23.865Z,98531.06
2023-03-13T02:53:00.842Z,98537.50
2023-03-13T02:55:41.003Z,98538.53
2023-03-13T02:58:08.330Z,98537.72
2023-03-13T03:00:36.098Z,98538.53
2023-03-13T03:03:02.897Z,98547.06
2023-03-13T03:05:29.651Z,98537.13
2023-03-13T03:07:56.490Z,98556.00
2023-03-13T03:10:23.292Z,98556.81
2023-03-13T03:12:50.189Z,98550.59
2023-03-13T03:15:17.172Z,98554.31
2023-03-13T03:17:44.000Z,98554.31
2023-03-13T03:20:14.112Z,98556.41
2023-03-13T03:22:40.994Z,98559.34
2023-03-13T03:25:09.297Z,98551.25
2023-03-13T03:27:36.831Z,98550.44
2023-03-13T03:30:05.684Z,98543.41
2023-03-13T03:32:32.529Z,98557.69
2023-03-13T03:34:59.355Z,98563.09
2023-03-13T03:37:26.384Z,98563.31
2023-03-13T03:39:53.222Z,98567.06
2023-03-13T03:42:20.030Z,98570.81
2023-03-13T03:44:47.036Z,98570.22
2023-03-13T03:47:13.913Z,98562.88
2023-03-13T03:49:41.001Z,98570.94
2023-03-13T03:52:07.860Z,98564.81
2023-03-13T03:54:35.246Z,98572.31
2023-03-13T03:57:02.105Z,98570.06
2023-03-13T03:59:29.006Z,98567.37
2023-03-13T04:01:56.044Z,98561.69
2023-03-13T04:04:22.918Z,98563.19
2023-03-13T04:06:49.759Z,98555.09
2023-03-13T04:09:16.681Z,98563.84
2023-03-13T04:11:43.558Z,98569.03
2023-03-13T04:14:10.361Z,98559.87
2023-03-13T04:16:37.329Z,98557.34
2023-03-13T04:19:04.233Z,98557.78
2023-03-13T04:21:31.073Z,98565.03
2023-03-13T04:23:57.883Z,98556.16
2023-03-13T04:26:24.771Z,98562.34
2023-03-13T04:28:51.627Z,98555.09
2023-03-13T04:31:18.648Z,98552.03
2023-03-13T04:33:45.433Z,98552.47
2023-03-13T04:36:12.301Z,98553.31
2023-03-13T04:38:39.358Z,98542.97
2023-03-13T04:41:06.178Z,98553.75
2023-03-13T04:43:32.981Z,98549.66
2023-03-13T04:45:59.811Z,98547.16
2023-03-13T04:48:26.702Z,98556.28
2023-03-13T04:50:53.503Z,98555.91
2023-03-13T04:53:20.422Z,98554.25
2023-03-13T04:55:48.700Z,98552.25
2023-03-13T04:58:15.578Z,98548.72
2023-03-13T05:00:42.694Z,98550.81
2023-03-13T05:03:09.571Z,98549.41
2023-03-13T05:05:36.644Z,98548.59
2023-03-13T05:08:03.701Z,98540.97
2023-03-13T05:10:30.605Z,98551.13
2023-03-13T05:12:57.444Z,98546.78
2023-03-13T05:15:24.345Z,98551.78
2023-03-13T05:17:53.553Z,98545.78
2023-03-13T05:20:21.357Z,98553.06
2023-03-13T05:22:48.201Z,98547.50
2023-03-13T05:25:15.184Z,98542.94
2023-03-13T05:27:42.142Z,98552.00
2023-03-13T05:30:09.761Z,98552.00
2023-03-13T05:32:36.653Z,98544.81
2023-03-13T05:35:03.714Z,98534.34
2023-03-13T05:37:30.521Z,98535.03
2023-03-13T05:39:57.358Z,98529.41
2023-03-13T05:42:24.292Z,98533.53
2023-03-13T05:44:51.073Z,98533.53
2023-03-13T05:47:18.720Z,98543.47
2023-03-13T05:49:45.751Z,98539.78
2023-03-13T05:52:12.574Z,98543.47
2023-03-13T05:54:39.413Z,98544.75
2023-03-13T05:57:06.316Z,98538.53
2023-03-13T05:59:33.142Z,98536.00
2023-03-13T06:01:59.923Z,98544.00
2023-03-13T06:04:26.941Z,98541.91
2023-03-13T06:06:53.785Z,98538.00
2023-03-13T06:09:20.835Z,98544.28
2023-03-13T06:11:47.657Z,98530.22
2023-03-13T06:14:14.559Z,98530.84
2023-03-13T06:16:41.564Z,98528.75
2023-03-13T06:19:08.412Z,98524.19
2023-03-13T06:21:35.287Z,98528.28
2023-03-13T06:24:02.103Z,98537.78
2023-03-13T06:26:29.066Z,98538.37
2023-03-13T06:28:55.950Z,98529.03
2023-03-13T06:31:22.932Z,98524.25
2023-03-13T06:33:54.542Z,98524.38
2023-03-13T06:36:25.338Z,98528.09
2023-03-13T06:38:52.217Z,98524.13
2023-03-13T06:41:19.052Z,98524.47
2023-03-13T06:43:45.903Z,98520.88
2023-03-13T06:46:18.977Z,98519.16
2023-03-13T06:48:46.515Z,98520.16
2023-03-13T06:51:21.425Z,98520.88
2023-03-13T06:53:48.581Z,98513.75
2023-03-13T06:56:15.562Z,98516.59
2023-03-13T06:58:42.433Z,98515.09
2023-03-13T07:01:12.005Z,98517.94
2023-03-13T07:03:39.758Z,98521.81
2023-03-13T07:06:06.789Z,98521.34
2023-03-13T07:08:34.205Z,98513.84
2023-03-13T07:11:04.561Z,98516.69
2023-03-13T07:13:34.755Z,98515.44
2023-03-13T07:16:07.208Z,98505.81
2023-03-13T07:18:34.701Z,98503.25
2023-03-13T07:21:05.273Z,98505.50
2023-03-13T07:23:34.642Z,98505.16
2023-03-13T07:26:04.428Z,98502.69
2023-03-13T07:28:31.752Z,98511.19
2023-03-13T07:31:14.726Z,98509.06
2023-03-13T07:33:45.653Z,98506.72
2023-03-13T07:36:14.576Z,98504.16
2023-03-13T07:38:41.547Z,98488.09
2023-03-13T07:41:08.475Z,98494.66
2023-03-13T07:43:35.353Z,98490.81
2023-03-13T07:46:04.649Z,98498.78
2023-03-13T07:48:36.770Z,98494.34
2023-03-13T07:51:08.102Z,98488.81
2023-03-13T07:53:35.280Z,98493.53
2023-03-13T07:56:22.319Z,98495.53
2023-03-13T07:58:49.315Z,98493.19
2023-03-13T08:01:30.556Z,98493.53
2023-03-13T08:03:58.893Z,98490.13
2023-03-13T08:06:27.375Z,98489.06
2023-03-13T08:08:58.037Z,98485.09
2023-03-13T08:11:26.478Z,98485.69
2023-03-13T08:13:54.620Z,98484.37
2023-03-13T08:16:27.403Z,98477.69
2023-03-13T08:18:56.595Z,98486.94
2023-03-13T08:21:25.822Z,98487.06
2023-03-13T08:24:07.123Z,98489.03
2023-03-13T08:26:36.659Z,98482.97
2023-03-13T08:29:10.095Z,98488.69
2023-03-13T08:31:42.249Z,98478.00
2023-03-13T08:34:09.052Z,98475.63
2023-03-13T08:36:37.498Z,98465.97
2023-03-13T08:39:13.706Z,98464.44
2023-03-13T08:41:43.358Z,98463.75
2023-03-13T08:44:15.538Z,98453.31
2023-03-13T08:46:44.036Z,98450.22
2023-03-13T08:49:12.323Z,98448.09
2023-03-13T08:51:39.656Z,98454.63
2023-03-13T08:54:06.733Z,98461.53
2023-03-13T08:56:34.982Z,98456.84
2023-03-13T08:59:05.886Z,98457.19
2023-03-13T09:01:35.179Z,98450.22
2023-03-13T09:04:04.459Z,98450.34
2023-03-13T09:06:35.992Z,98453.69
2023-03-13T09:09:05.571Z,98450.84
2023-03-13T09:11:33.360Z,98448.78
2023-03-13T09:14:00.194Z,98445.13
2023-03-13T09:16:29.853Z,98452.25
2023-03-13T09:18:58.076Z,98450.72
2023-03-13T09:21:28.034Z,98458.91
2023-03-13T09:23:54.869Z,98467.13
2023-03-13T09:26:23.424Z,98455.56
2023-03-13T09:28:52.003Z,98451.13
2023-03-13T09:31:22.443Z,98450.38
2023-03-13T09:33:50.786Z,98457.34
2023-03-13T09:36:21.837Z,98452.84
2023-03-13T09:38:51.188Z,98446.72
2023-03-13T09:41:17.977Z,98441.38
2023-03-13T09:43:48.206Z,98442.25
2023-03-13T09:46:25.227Z,98440.94
2023-03-13T09:49:00.046Z,98430.16
2023-03-13T09:51:36.666Z,98431.34
2023-03-13T09:54:30.521Z,98429.19
2023-03-13T09:57:03.802Z,98432.72
2023-03-13T09:59:37.767Z,98429.75
2023-03-13T10:02:21.060Z,98424.91
2023-03-13T10:04:53.697Z,98425.72
2023-03-13T10:07:28.957Z,98429.81
2023-03-13T10:09:55.854Z,98429.31
2023-03-13T10:12:32.608Z,98424.47
2023-03-13T10:15:55.163Z,98412.56
2023-03-13T10:18:24.775Z,98400.16
2023-03-13T10:20:57.045Z,98380.75
2023-03-13T10:23:43.532Z,98382.91
2023-03-13T10:26:37.513Z,98372.88
2023-03-13T10:29:34.571Z,98359.06
2023-03-13T10:32:14.743Z,98353.16
2023-03-13T10:34:57.675Z,98355.44
2023-03-13T10:37:25.925Z,98348.25
2023-03-13T10:39:53.478Z,98355.44
2023-03-13T10:42:35.242Z,98349.78
2023-03-13T10:45:05.572Z,98373.47
2023-03-13T10:47:37.981Z,98369.16
2023-03-13T10:50:07.744Z,98370.53
2023-03-13T10:52:40.490Z,98382.53
2023-03-13T10:55:12.236Z,98388.00
2023-03-13T10:57:44.441Z,98373.69
2023-03-13T11:00:41.293Z,98369.66
2023-03-13T11:03:18.583Z,98369.44
2023-03-13T11:05:57.104Z,98357.00
2023-03-13T11:08:33.926Z,98354.31
2023-03-13T11:11:06.251Z,98351.69
2023-03-13T11:13:44.609Z,98332.47
2023-03-13T11:16:20.871Z,98326.81
2023-03-13T11:18:59.730Z,98325.53
2023-03-13T11:22:05.524Z,98321.28
2023-03-13T11:24:38.420Z,98312.38
2023-03-13T11:27:15.174Z,98313.81
2023-03-13T11:29:48.141Z,98298.12
2023-03-13T11:32:37.488Z,98304.19
2023-03-13T11:35:40.729Z,98293.63
2023-03-13T11:38:16.567Z,98280.91
2023-03-13T11:40:49.410Z,98267.66
2023-03-13T11:43:42.407Z,98263.97
2023-03-13T11:46:09.494Z,98257.47
2023-03-13T11:48:36.502Z,98249.06
2023-03-13T11:51:20.564Z,98242.53
2023-03-13T11:53:58.835Z,98242.03
2023-03-13T11:56:38.795Z,98228.13
2023-03-13T11:59:20.484Z,98232.22
2023-03-13T12:01:56.059Z,98225.16
2023-03-13T12:04:44.882Z,98228.94
2023-03-13T12:07:25.558Z,98222.69
2023-03-13T12:09:58.943Z,98215.06
2023-03-13T12:12:49.698Z,98212.06
2023-03-13T12:15:46.715Z,98218.84
2023-03-13T12:18:41.173Z,98212.84
2023-03-13T12:21:32.248Z,98212.84
2023-03-13T12:24:26.101Z,98203.31
2023-03-13T12:27:02.658Z,98214.47
2023-03-13T12:29:48.193Z,98216.34
2023-03-13T12:32:25.745Z,98216.63
2023-03-13T12:35:01.946Z,98213.34
2023-03-13T12:38:12.232Z,98208.19
2023-03-13T12:40:52.292Z,98185.56
2023-03-13T12:43:24.810Z,98184.69
2023-03-13T12:46:12.262Z,98171.31
2023-03-13T12:49:10.681Z,98176.19
2023-03-13T12:51:58.910Z,98189.00
2023-03-13T12:54:25.725Z,98184.38
2023-03-13T12:56:52.423Z,98177.53
2023-03-13T12:59:34.409Z,98175.59
2023-03-13T13:02:03.812Z,98173.38
2023-03-13T13:04:41.896Z,98177.69
2023-03-13T13:07:23.394Z,98175.78
2023-03-13T13:10:17.222Z,98169.50
2023-03-13T13:12:46.786Z,98174.13
2023-03-13T13:15:31.934Z,98162.63
2023-03-13T13:18:32.506Z,98156.31
2023-03-13T13:21:02.082Z,98147.34
2023-03-13T13:23:38.488Z,98155.75
2023-03-13T13:26:27.084Z,98144.84
2023-03-13T13:28:55.330Z,98134.50
2023-03-13T13:31:51.089Z,98126.84
2023-03-13T13:34:37.934Z,98128.19
2023-03-13T13:37:17.725Z,98111.25
2023-03-13T13:39:48.317Z,98107.91
2023-03-13T13:42:33.233Z,98099.12
2023-03-13T13:45:20.660Z,98086.00
2023-03-13T13:47:53.831Z,98073.69
2023-03-13T13:50:27.815Z,98079.03
2023-03-13T13:53:34.288Z,98076.31
2023-03-13T13:56:19.852Z,98067.53
2023-03-13T13:58:47.865Z,98066.97
2023-03-13T14:01:16.891Z,98064.53
2023-03-13T14:03:46.955Z,98058.47
2023-03-13T14:06:32.272Z,98063.13
2023-03-13T14:09:37.375Z,98077.06
2023-03-13T14:12:47.619Z,98064.19
2023-03-13T14:15:19.243Z,98062.25
2023-03-13T14:17:49.882Z,98069.00
2023-03-13T14:20:27.682Z,98057.78
2023-03-13T14:22:57.976Z,98045.97
2023-03-13T14:25:27.493Z,98045.13
2023-03-13T14:27:55.541Z,98046.19
2023-03-13T14:30:23.792Z,98058.13
2023-03-13T14:32:51.097Z,98071.22
2023-03-13T14:35:20.890Z,98065.47
2023-03-13T14:37:51.181Z,98056.16
2023-03-13T14:40:17.911Z,98038.66
2023-03-13T14:42:56.779Z,98036.75
2023-03-13T14:45:25.923Z,98038.59
2023-03-13T14:47:53.618Z,98039.94
2023-03-13T14:50:24.421Z,98028.72
2023-03-13T14:53:05.406Z,98016.63
2023-03-13T14:55:35.807Z,98009.97
2023-03-13T14:58:23.985Z,98009.38
2023-03-13T15:00:50.828Z,98003.09
2023-03-13T15:03:18.870Z,97995.38
2023-03-13T15:06:08.626Z,97993.38
2023-03-13T15:08:41.269Z,97994.72
2023-03-13T15:11:32.226Z,97986.22
2023-03-13T15:13:59.134Z,97979.13
2023-03-13T15:16:28.210Z,97977.41
2023-03-13T15:18:57.292Z,97970.31
2023-03-13T15:21:42.224Z,97973.66
2023-03-13T15:24:15.647Z,97967.16
2023-03-13T15:26:42.466Z,97987.09
2023-03-13T15:29:12.368Z,97984.66
2023-03-13T15:31:40.100Z,97981.72
2023-03-13T15:34:12.379Z,97974.63
2023-03-13T15:36:40.788Z,97974.06
2023-03-13T15:39:21.214Z,97966.47
2023-03-13T15:41:48.107Z,97966.47
2023-03-13T15:44:15.140Z,97962.94
2023-03-13T15:46:41.979Z,97964.34
2023-03-13T15:49:13.013Z,97963.00
2023-03-13T15:51:39.929Z,97955.41
2023-03-13T15:54:06.796Z,97957.63
2023-03-13T15:56:38.791Z,97955.50
2023-03-13T15:59:13.532Z,97955.78
2023-03-13T16:01:40.809Z,97947.06
2023-03-13T16:04:07.829Z,97946.81
2023-03-13T16:06:34.628Z,97956.94
2023-03-13T16:09:05.393Z,97955.59
2023-03-13T16:11:34.673Z,97944.16
2023-03-13T16:14:05.359Z,97937.91
2023-03-13T16:16:37.525Z,97931.09
2023-03-13T16:19:04.677Z,97937.69
2023-03-13T16:21:34.731Z,97934.44
2023-03-13T16:24:02.043Z,97925.44
2023-03-13T16:26:31.794Z,97929.56
2023-03-13T16:28:59.112Z,97931.47
2023-03-13T16:31:28.961Z,97938.84
2023-03-13T16:33:57.660Z,97938.62
2023-03-13T16:36:32.764Z,97940.56
2023-03-13T16:39:01.712Z,97930.19
2023-03-13T16:41:29.417Z,97934.31
2023-03-13T16:43:56.662Z,97931.06
2023-03-13T16:46:32.915Z,97927.03
2023-03-13T16:48:59.884Z,97930.34
2023-03-13T16:51:28.504Z,97933.94
2023-03-13T16:53:59.743Z,97931.00
2023-03-13T16:56:35.455Z,97935.13
2023-03-13T16:59:07.019Z,97931.59
2023-03-13T17:01:34.920Z,97936.31
2023-03-13T17:04:02.162Z,97932.25
2023-03-13T17:06:33.174Z,97923.31
2023-03-13T17:09:10.894Z,97926.94
2023-03-13T17:11:41.732Z,97916.03
2023-03-13T17:14:10.355Z,97921.56
2023-03-13T17:16:43.007Z,97927.09
2023-03-13T17:19:14.078Z,97923.59
2023-03-13T17:21:41.643Z,97927.72
2023-03-13T17:24:09.048Z,97921.19
2023-03-13T17:26:38.263Z,97919.63
2023-03-13T17:29:06.470Z,97925.66
2023-03-13T17:31:38.327Z,97915.63
2023-03-13T17:34:06.649Z,97920.84
2023-03-13T17:36:35.416Z,97913.50
2023-03-13T17:39:05.775Z,97924.19
2023-03-13T17:41:34.848Z,97918.78
2023-03-13T17:44:04.116Z,97915.25
2023-03-13T17:46:32.622Z,97913.91
2023-03-13T17:49:00.486Z,97900.34
2023-03-13T17:51:32.361Z,97910.72
2023-03-13T17:54:00.445Z,97899.84
2023-03-13T17:56:32.064Z,97892.00
2023-03-13T17:59:02.005Z,97879.75
2023-03-13T18:01:33.188Z,97872.16
2023-03-13T18:04:02.702Z,97859.94
2023-03-13T18:06:37.418Z,97862.72
2023-03-13T18:09:08.805Z,97852.91
2023-03-13T18:11:39.753Z,97849.91
2023-03-13T18:14:07.268Z,97841.50
2023-03-13T18:16:48.183Z,97821.13
2023-03-13T18:19:19.935Z,97818.16
2023-03-13T18:21:50.261Z,97823.91
2023-03-13T18:24:18.908Z,97820.13
2023-03-13T18:26:48.008Z,97807.34
2023-03-13T18:29:27.233Z,97810.34
2023-03-13T18:31:56.357Z,97815.03
2023-03-13T18:34:25.384Z,97812.87
2023-03-13T18:36:54.416Z,97823.53
2023-03-13T18:39:22.393Z,97822.19
2023-03-13T18:41:52.818Z,97816.22
2023-03-13T18:44:24.105Z,97819.78
2023-03-13T18:46:53.192Z,97814.09
2023-03-13T18:49:22.903Z,97812.75
2023-03-13T18:51:56.145Z,97808.97
2023-03-13T18:54:23.814Z,97810.91
2023-03-13T18:56:52.031Z,97803.88
2023-03-13T18:59:21.536Z,97799.53
2023-03-13T19:01:51.656Z,97802.81
2023-03-13T19:04:21.306Z,97801.25
2023-03-13T19:06:49.445Z,97804.25
2023-03-13T19:09:42.217Z,97805.91
2023-03-13T19:12:14.728Z,97796.69
2023-03-13T19:14:42.997Z,97789.09
2023-03-13T19:17:30.811Z,97788.81
2023-03-13T19:19:58.776Z,97789.09
2023-03-13T19:22:27.661Z,97780.97
2023-03-13T19:24:56.338Z,97769.03
2023-03-13T19:27:25.187Z,97757.91
2023-03-13T19:29:52.962Z,97761.22
2023-03-13T19:32:20.708Z,97756.59
2023-03-13T19:34:50.554Z,97742.47
2023-03-13T19:37:21.004Z,97739.22
2023-03-13T19:39:51.075Z,97741.69
2023-03-13T19:42:20.218Z,97731.63
2023-03-13T19:44:48.487Z,97722.94
2023-03-13T19:47:18.012Z,97721.34
2023-03-13T19:49:45.715Z,97715.09
2023-03-13T19:52:14.795Z,97703.97
2023-03-13T19:54:42.504Z,97705.34
2023-03-13T19:57:11.928Z,97698.84
2023-03-13T19:59:40.177Z,97688.25
2023-03-13T20:02:09.607Z,97681.47
2023-03-13T20:04:40.789Z,97674.69
2023-03-13T20:07:08.628Z,97666.78
2023-03-13T20:09:36.856Z,97668.69
2023-03-13T20:12:05.129Z,97665.22
2023-03-13T20:14:32.935Z,97657.59
2023-03-13T20:17:00.500Z,97653.81
2023-03-13T20:19:30.254Z,97647.03
2023-03-13T20:22:04.043Z,97653.00
2023-03-13T20:24:36.137Z,97651.38
2023-03-13T20:27:05.049Z,97642.16
2023-03-13T20:29:33.307Z,97635.69
2023-03-13T20:32:02.219Z,97639.19
2023-03-13T20:34:30.330Z,97634.09
2023-03-13T20:37:03.878Z,97637.63
2023-03-13T20:39:34.827Z,97632.22
2023-03-13T20:42:03.583Z,97625.97
2023-03-13T20:44:31.619Z,97619.72
2023-03-13T20:47:01.020Z,97615.13
2023-03-13T20:49:29.441Z,97605.63
2023-03-13T20:51:57.237Z,97596.41
2023-03-13T20:54:24.791Z,97595.34
2023-03-13T20:56:52.181Z,97602.13
2023-03-13T20:59:19.896Z,97599.97
2023-03-13T21:01:47.910Z,97588.34
2023-03-13T21:04:16.098Z,97578.84
2023-03-13T21:06:43.976Z,97574.50
2023-03-13T21:09:11.665Z,97570.44
2023-03-13T21:11:38.771Z,97567.47
2023-03-13T21:14:06.379Z,97562.31
2023-03-13T21:16:33.789Z,97559.84
2023-03-13T21:19:01.664Z,97562.56
2023-03-13T21:21:29.760Z,97560.94
2023-03-13T21:23:56.835Z,97559.31
2023-03-13T21:26:23.811Z,97549.56
2023-03-13T21:28:53.225Z,97535.44
2023-03-13T21:31:20.370Z,97533.56
2023-03-13T21:33:48.494Z,97525.69
2023-03-13T21:36:17.828Z,97534.13
2023-03-13T21:38:44.841Z,97525.72
2023-03-13T21:41:15.521Z,97517.56
2023-03-13T21:43:42.922Z,97507.81
2023-03-13T21:46:11.118Z,97500.75
2023-03-13T21:48:39.687Z,97498.06
2023-03-13T21:51:07.660Z,97501.34
2023-03-13T21:53:35.480Z,97497.00
2023-03-13T21:56:02.440Z,97489.66
2023-03-13T21:58:29.297Z,97497.53
2023-03-13T22:00:57.519Z,97489.94
2023-03-13T22:03:26.777Z,97479.13
2023-03-13T22:05:54.313Z,97480.22
2023-03-13T22:08:21.391Z,97477.50
2023-03-13T22:10:50.202Z,97471.03
2023-03-13T22:13:17.355Z,97470.75
2023-03-13T22:15:46.670Z,97463.97
2023-03-13T22:18:17.085Z,97463.44
2023-03-13T22:20:44.344Z,97453.69
2023-03-13T22:23:12.225Z,97449.06
2023-03-13T22:25:40.513Z,97455.06
2023-03-13T22:28:07.398Z,97461.56
2023-03-13T22:30:34.824Z,97447.47
2023-03-13T22:33:03.953Z,97436.06
2023-03-13T22:35:30.820Z,97431.75
2023-03-13T22:37:57.697Z,97434.72
2023-03-13T22:40:24.818Z,97431.75
2023-03-13T22:42:51.838Z,97423.31
2023-03-13T22:45:19.282Z,97411.94
2023-03-13T22:47:46.187Z,97401.63
2023-03-13T22:50:13.954Z,97402.44
2023-03-13T22:52:40.994Z,97387.81
2023-03-13T22:55:08.187Z,97387.81
2023-03-13T22:57:35.093Z,97384.00
2023-03-13T23:00:01.959Z,97369.63
2023-03-13T23:02:29.301Z,97365.53
2023-03-13T23:04:58.545Z,97365.25
2023-03-13T23:07:28.481Z,97376.91
2023-03-13T23:09:57.528Z,97365.50
2023-03-13T23:12:26.050Z,97370.63
2023-03-13T23:14:53.257Z,97374.69
2023-03-13T23:17:20.115Z,97363.56
2023-03-13T23:19:47.048Z,97360.03
2023-03-13T23:22:17.910Z,97367.66
2023-03-13T23:24:44.960Z,97370.59
2023-03-13T23:27:11.969Z,97376.03
2023-03-13T23:29:38.973Z,97376.03
2023-03-13T23:32:06.285Z,97384.44
2023-03-13T23:34:35.569Z,97374.41
2023-03-13T23:37:02.545Z,97378.75
2023-03-13T23:39:29.607Z,97364.37
2023-03-13T23:41:56.504Z,97372.75
2023-03-13T23:44:23.628Z,97374.41
2023-03-13T23:46:50.443Z,97373.84
2023-03-13T23:49:17.250Z,97372.50
2023-03-13T23:51:44.042Z,97391.50
2023-03-13T23:54:10.842Z,97382.03
2023-03-13T23:56:37.669Z,97386.91
2023-03-13T23:59:04.618Z,97373.13
